Time;durP1;ratioP1;P1;durP2;ratioP2;P2;SDS_P1;SDS_P2;PMS_P1;PMS_P2;Temp;Humidity;BMP_temperature;BMP_pressure;BME280_temperature;BME280_humidity;BME280_pressure;Samples;Min_cycle;Max_cycle;Signal;HPM_P1;HPM_P2
2021/06/20 00:00:26;;;;;;;22.03;14.23;;;;;;;19.01;59.21;98945.67;126968;1095;102984;-76
2021/06/20 00:03:14;;;;;;;23.67;14.47;;;;;;;19.01;59.40;98951.06;125646;1094;103007;-76
2021/06/20 00:05:53;;;;;;;23.03;14.43;;;;;;;18.99;59.04;98935.03;125627;1094;102924;-77
2021/06/20 00:08:22;;;;;;;24.80;14.67;;;;;;;18.98;59.18;98940.61;125569;1094;103034;-76
2021/06/20 00:10:51;;;;;;;23.37;13.87;;;;;;;18.99;59.24;98940.42;125663;1094;103077;-76
2021/06/20 00:13:20;;;;;;;24.00;15.13;;;;;;;19.00;59.26;98942.11;125628;1094;103149;-76
2021/06/20 00:15:50;;;;;;;24.80;15.77;;;;;;;18.99;59.73;98947.69;125648;1094;102977;-78
2021/06/20 00:18:19;;;;;;;23.13;15.80;;;;;;;18.98;59.78;98943.30;125649;1096;103030;-76
2021/06/20 00:20:49;;;;;;;21.93;14.70;;;;;;;18.93;59.49;98946.48;125631;1095;103506;-76
2021/06/20 00:23:18;;;;;;;25.97;17.00;;;;;;;18.92;59.49;98939.41;125655;1096;103011;-75
2021/06/20 00:25:46;;;;;;;27.60;17.30;;;;;;;18.89;59.79;98937.88;125673;1096;102928;-75
2021/06/20 00:28:15;;;;;;;26.80;17.70;;;;;;;18.85;60.10;98941.92;125692;1096;102913;-76
2021/06/20 00:30:44;;;;;;;26.93;17.37;;;;;;;18.85;60.19;98938.40;125656;1096;102937;-76
2021/06/20 00:33:12;;;;;;;29.80;18.73;;;;;;;18.83;59.84;98922.38;125662;1096;102994;-76
2021/06/20 00:35:41;;;;;;;27.57;18.60;;;;;;;18.80;60.35;98924.59;125699;1096;103067;-75
2021/06/20 00:38:09;;;;;;;26.43;17.37;;;;;;;18.74;60.29;98908.08;125688;1096;102918;-75
2021/06/20 00:40:38;;;;;;;29.63;18.30;;;;;;;18.73;60.44;98902.88;125688;1096;102998;-75
2021/06/20 00:43:07;;;;;;;31.50;19.37;;;;;;;18.70;60.38;98905.91;125674;1096;102938;-74
2021/06/20 00:45:36;;;;;;;29.57;18.93;;;;;;;18.68;60.23;98908.75;125688;1095;103393;-76
2021/06/20 00:48:05;;;;;;;27.73;17.47;;;;;;;18.65;60.20;98906.39;125700;1095;102999;-76
2021/06/20 00:50:33;;;;;;;27.80;18.73;;;;;;;18.59;60.77;98907.91;125664;1096;103041;-76
2021/06/20 00:53:04;;;;;;;28.60;18.87;;;;;;;18.56;60.81;98899.30;125560;1095;103031;-76
2021/06/20 00:55:37;;;;;;;28.73;18.40;;;;;;;18.55;60.89;98903.86;125653;1097;103032;-76
2021/06/20 00:58:07;;;;;;;33.03;19.23;;;;;;;18.54;60.54;98894.09;125705;1097;103413;-76
2021/06/20 01:00:36;;;;;;;27.70;18.73;;;;;;;18.54;61.02;98901.36;125694;1094;102916;-76
2021/06/20 01:03:07;;;;;;;27.60;17.87;;;;;;;18.54;60.82;98893.27;125621;1096;103521;-76
2021/06/20 01:05:35;;;;;;;32.23;17.53;;;;;;;18.54;61.12;98893.27;125707;1095;103007;-78
2021/06/20 01:08:04;;;;;;;27.43;16.83;;;;;;;18.45;60.95;98895.95;125659;1096;103073;-77
2021/06/20 01:10:36;;;;;;;29.03;18.67;;;;;;;18.37;60.79;98908.55;125590;1096;102990;-77
2021/06/20 01:13:09;;;;;;;28.83;17.57;;;;;;;18.34;60.90;98909.73;125700;1095;103032;-78
2021/06/20 01:15:40;;;;;;;26.53;17.03;;;;;;;18.36;61.09;98923.02;125659;1096;102923;-78
2021/06/20 01:18:10;;;;;;;23.27;14.60;;;;;;;18.27;60.78;98909.56;125755;1096;102913;-76
2021/06/20 01:20:40;;;;;;;24.97;15.90;;;;;;;18.18;61.04;98909.69;125756;1096;103130;-75
2021/06/20 01:23:08;;;;;;;22.70;14.67;;;;;;;18.15;61.18;98916.26;125769;1095;102916;-76
2021/06/20 01:25:41;;;;;;;25.47;15.07;;;;;;;18.17;61.16;98921.45;125725;1095;102913;-76
2021/06/20 01:28:12;;;;;;;23.67;14.80;;;;;;;18.18;61.36;98928.53;125699;1096;103070;-76
2021/06/20 01:30:44;;;;;;;24.07;14.33;;;;;;;18.17;61.29;98926.84;125672;1095;102945;-77
2021/06/20 01:33:14;;;;;;;22.95;14.15;;;;;;;18.14;61.57;98919.95;125646;1096;103006;-78
2021/06/20 01:35:44;;;;;;;26.87;14.47;;;;;;;18.11;61.61;98912.20;125697;1096;103373;-78
2021/06/20 01:38:13;;;;;;;23.03;14.20;;;;;;;18.11;61.59;98929.21;125669;1094;103014;-75
2021/06/20 01:40:41;;;;;;;25.45;13.30;;;;;;;18.05;61.30;98923.62;125648;1096;103380;-77
2021/06/20 01:43:09;;;;;;;24.35;13.90;;;;;;;17.93;61.71;98929.26;125633;1095;102929;-77
2021/06/20 01:45:39;;;;;;;22.90;14.20;;;;;;;17.95;61.82;98935.32;125492;1096;103151;-76
2021/06/20 01:48:08;;;;;;;22.77;14.03;;;;;;;17.97;61.93;98943.25;125690;1095;103089;-75
2021/06/20 01:50:37;;;;;;;26.83;14.77;;;;;;;17.99;61.95;98941.27;125621;1096;103536;-77
2021/06/20 01:53:10;;;;;;;21.87;13.67;;;;;;;18.00;62.17;98943.79;125593;1095;103186;-79
2021/06/20 01:55:43;;;;;;;21.00;12.60;;;;;;;18.02;62.30;98948.16;125601;1096;103023;-78
2021/06/20 01:58:14;;;;;;;22.77;13.57;;;;;;;18.00;62.13;98946.48;125611;1095;103090;-79
2021/06/20 02:00:45;;;;;;;22.93;14.60;;;;;;;18.00;62.46;98959.11;125706;1094;102942;-78
2021/06/20 02:03:22;;;;;;;22.30;13.60;;;;;;;17.99;62.04;98950.17;125611;1096;103264;-77
2021/06/20 02:05:53;;;;;;;22.67;13.10;;;;;;;17.97;62.11;98954.02;125649;1095;103094;-78
2021/06/20 02:08:21;;;;;;;23.50;13.20;;;;;;;17.94;62.17;98965.09;125708;1097;103185;-78
2021/06/20 02:10:50;;;;;;;23.43;15.57;;;;;;;17.92;62.21;98967.97;125521;1095;102929;-78
2021/06/20 02:13:23;;;;;;;24.47;14.20;;;;;;;17.90;62.47;98971.80;125644;1096;102940;-80
2021/06/20 02:15:52;;;;;;;22.73;13.98;;;;;;;17.87;62.56;98964.91;125661;1096;102938;-79
2021/06/20 02:18:21;;;;;;;23.10;14.47;;;;;;;17.77;62.44;98965.02;125618;1096;103065;-79
2021/06/20 02:20:50;;;;;;;24.07;13.93;;;;;;;17.74;62.94;98959.13;125622;1094;102916;-78
2021/06/20 02:23:18;;;;;;;24.80;14.57;;;;;;;17.75;62.70;98947.36;125642;1096;103000;-78
2021/06/20 02:25:47;;;;;;;22.03;12.70;;;;;;;17.69;62.91;98941.62;125686;1094;102916;-79
2021/06/20 02:28:16;;;;;;;24.47;14.63;;;;;;;17.70;62.84;98947.86;125604;1095;102925;-78
2021/06/20 02:30:45;;;;;;;22.30;12.90;;;;;;;17.65;63.08;98945.63;125655;1095;103060;-78
2021/06/20 02:33:14;;;;;;;23.60;14.10;;;;;;;17.61;62.71;98935.36;125656;1096;102997;-78
2021/06/20 02:35:42;;;;;;;24.37;13.87;;;;;;;17.60;63.01;98941.75;125640;1095;103097;-77
2021/06/20 02:38:11;;;;;;;23.90;14.13;;;;;;;17.57;62.98;98959.02;125713;1095;103029;-79
2021/06/20 02:40:39;;;;;;;23.45;14.15;;;;;;;17.55;62.97;98953.83;125688;1095;103164;-78
2021/06/20 02:43:07;;;;;;;23.75;14.65;;;;;;;17.53;63.15;98946.90;125707;1095;102934;-79
2021/06/20 02:45:36;;;;;;;23.10;13.67;;;;;;;17.54;63.15;98935.14;125754;1095;102940;-78
2021/06/20 02:48:04;;;;;;;25.37;14.60;;;;;;;17.54;63.38;98925.24;125648;1096;103064;-79
2021/06/20 02:50:33;;;;;;;21.83;13.87;;;;;;;17.55;63.33;98926.07;125695;1096;102922;-78
2021/06/20 02:53:01;;;;;;;24.30;15.27;;;;;;;17.56;63.55;98925.93;125627;1096;102913;-80
2021/06/20 02:55:31;;;;;;;24.13;14.30;;;;;;;17.57;63.47;98937.52;125606;1096;103063;-79
2021/06/20 02:57:59;;;;;;;22.00;13.03;;;;;;;17.58;63.78;98931.13;125688;1096;102913;-79
2021/06/20 03:00:28;;;;;;;22.97;13.87;;;;;;;17.58;63.68;98943.75;125645;1096;102991;-79
2021/06/20 03:02:57;;;;;;;24.40;14.90;;;;;;;17.56;63.70;98944.75;125664;1096;102910;-78
2021/06/20 03:05:25;;;;;;;24.13;13.70;;;;;;;17.56;63.83;98951.96;125691;1096;103064;-78
2021/06/20 03:07:54;;;;;;;25.17;14.33;;;;;;;17.54;63.94;98962.03;125665;1096;103068;-80
2021/06/20 03:10:22;;;;;;;24.73;14.93;;;;;;;17.53;63.82;98955.83;125701;1096;102998;-80
2021/06/20 03:12:51;;;;;;;24.60;14.87;;;;;;;17.52;64.13;98950.63;125642;1096;103091;-78
2021/06/20 03:15:20;;;;;;;24.93;14.27;;;;;;;17.48;63.80;98946.56;125688;1096;103020;-78
2021/06/20 03:17:50;;;;;;;26.50;15.67;;;;;;;17.41;64.14;98957.95;125703;1096;103370;-77
2021/06/20 03:20:23;;;;;;;25.67;16.47;;;;;;;17.39;63.79;98946.50;125643;1097;102997;-75
2021/06/20 03:22:51;;;;;;;;;;;;;;;17.35;64.41;98937.06;125603;1096;103124;-76
2021/06/20 03:25:20;;;;;;;23.57;15.27;;;;;;;17.33;64.17;98928.32;125639;1094;102916;-76
2021/06/20 03:27:51;;;;;;;26.33;16.90;;;;;;;17.35;64.31;98934.38;125696;1094;103426;-77
2021/06/20 03:30:20;;;;;;;26.20;16.73;;;;;;;17.37;64.32;98935.06;125646;1094;103428;-77
2021/06/20 03:32:48;;;;;;;25.23;16.47;;;;;;;17.37;64.43;98924.31;125550;1096;102988;-77
2021/06/20 03:35:16;;;;;;;26.43;17.00;;;;;;;17.41;64.48;98927.52;125668;1097;103036;-76
2021/06/20 03:37:45;;;;;;;26.00;16.90;;;;;;;17.44;64.64;98929.89;125642;1095;102916;-78
2021/06/20 03:40:14;;;;;;;28.50;17.15;;;;;;;17.48;64.71;98927.73;125638;1095;101851;-78
2021/06/20 03:42:43;;;;;;;26.33;17.17;;;;;;;17.51;64.83;98927.42;125611;1095;103409;-79
2021/06/20 03:45:12;;;;;;;27.25;17.20;;;;;;;17.50;64.35;98929.25;125556;1096;102913;-78
2021/06/20 03:47:41;;;;;;;28.17;17.87;;;;;;;17.52;64.43;98926.42;125663;1096;102998;-78
2021/06/20 03:50:11;;;;;;;27.23;16.33;;;;;;;17.54;64.76;98925.24;125652;1096;102916;-77
2021/06/20 03:52:40;;;;;;;24.00;16.63;;;;;;;17.53;64.79;98931.63;125724;1094;103007;-78
2021/06/20 03:55:10;;;;;;;27.77;18.00;;;;;;;17.55;64.55;98929.62;125714;1096;103012;-78
2021/06/20 03:57:39;;;;;;;26.13;17.13;;;;;;;17.57;64.53;98918.69;125631;1096;103039;-79
2021/06/20 04:00:10;;;;;;;28.37;17.07;;;;;;;17.59;64.91;98921.23;125734;1096;102913;-79
2021/06/20 04:02:38;;;;;;;30.63;16.93;;;;;;;17.60;64.54;98917.55;125737;1097;102916;-78
2021/06/20 04:05:14;;;;;;;25.77;17.17;;;;;;;17.61;64.93;98924.61;125701;1096;102952;-78
2021/06/20 04:07:44;;;;;;;24.50;16.37;;;;;;;17.61;65.02;98929.98;125707;1097;103167;-78
2021/06/20 04:10:13;;;;;;;24.67;16.50;;;;;;;17.62;65.04;98923.60;125660;1095;103016;-79
2021/06/20 04:12:41;;;;;;;27.07;17.23;;;;;;;17.63;65.03;98922.60;125681;1097;104509;-78
2021/06/20 04:15:10;;;;;;;25.23;16.67;;;;;;;17.51;64.78;98920.19;125627;1095;103097;-77
2021/06/20 04:17:38;;;;;;;27.13;16.83;;;;;;;17.36;64.66;98924.45;125649;1096;101803;-78
2021/06/20 04:20:10;;;;;;;25.60;15.17;;;;;;;17.26;64.88;98920.05;125658;1096;103001;-77
2021/06/20 04:22:40;;;;;;;26.70;16.57;;;;;;;17.15;64.60;98909.56;125492;1096;103090;-79
2021/06/20 04:25:13;;;;;;;24.27;15.00;;;;;;;17.10;64.94;98922.63;125654;1096;103107;-77
2021/06/20 04:27:48;;;;;;;24.90;14.35;;;;;;;17.11;65.09;98913.56;125630;1096;102934;-78
2021/06/20 04:30:20;;;;;;;22.17;13.97;;;;;;;17.18;65.54;98916.45;125668;1096;103049;-77
2021/06/20 04:32:50;;;;;;;21.47;12.53;;;;;;;17.19;65.28;98910.94;125660;1096;102911;-77
2021/06/20 04:35:21;;;;;;;22.07;11.90;;;;;;;17.22;65.45;98912.45;125619;1095;103031;-78
2021/06/20 04:37:50;;;;;;;21.53;10.33;;;;;;;17.20;65.24;98911.77;125725;1095;103010;-78
2021/06/20 04:40:23;;;;;;;21.87;10.40;;;;;;;17.11;65.03;98903.67;125628;1096;102988;-79
2021/06/20 04:42:58;;;;;;;19.43;9.20;;;;;;;17.03;65.57;98906.30;125630;1095;103002;-78
2021/06/20 04:45:28;;;;;;;19.70;10.50;;;;;;;16.99;65.47;98904.06;125592;1095;103205;-78
2021/06/20 04:47:57;;;;;;;19.00;9.30;;;;;;;17.00;65.48;98905.75;125652;1095;103034;-77
2021/06/20 04:50:25;;;;;;;18.20;9.55;;;;;;;17.01;65.49;98897.55;125669;1097;103013;-78
2021/06/20 04:52:54;;;;;;;20.10;10.97;;;;;;;17.00;65.66;98903.92;125642;1096;102938;-78
2021/06/20 04:55:22;;;;;;;18.90;10.13;;;;;;;17.02;65.77;98903.75;125675;1096;102911;-76
2021/06/20 04:57:51;;;;;;;19.53;10.53;;;;;;;17.11;66.13;98900.13;125640;1094;103068;-76
2021/06/20 05:00:20;;;;;;;18.87;10.93;;;;;;;17.22;66.10;98893.64;125627;1095;103022;-78
2021/06/20 05:02:49;;;;;;;18.10;9.90;;;;;;;17.34;66.47;98888.82;125665;1095;102941;-77
2021/06/20 05:05:17;;;;;;;20.87;10.87;;;;;;;17.45;66.42;98888.55;125627;1096;103019;-77
2021/06/20 05:07:46;;;;;;;20.27;10.67;;;;;;;17.57;66.35;98883.73;125623;1095;103007;-77
2021/06/20 05:10:14;;;;;;;18.87;10.73;;;;;;;17.67;66.47;98887.14;125657;1096;102972;-76
2021/06/20 05:12:43;;;;;;;20.03;11.67;;;;;;;17.78;66.09;98891.38;125679;1096;103108;-78
2021/06/20 05:15:11;;;;;;;22.60;11.80;;;;;;;17.89;66.67;98881.33;125613;1095;102984;-78
2021/06/20 05:17:40;;;;;;;19.87;11.80;;;;;;;18.00;66.49;98889.97;125638;1096;102948;-76
2021/06/20 05:20:09;;;;;;;22.53;13.77;;;;;;;18.11;66.60;98883.45;125621;1095;102945;-77
2021/06/20 05:22:37;;;;;;;22.33;14.03;;;;;;;18.24;66.63;98891.05;125660;1095;103071;-77
2021/06/20 05:25:06;;;;;;;24.87;14.93;;;;;;;18.35;66.51;98894.41;125610;1095;103036;-76
2021/06/20 05:27:34;;;;;;;22.87;14.03;;;;;;;18.46;66.32;98883.31;126480;1096;103093;-77
2021/06/20 05:30:05;;;;;;;26.95;15.80;;;;;;;18.57;66.25;98892.91;125538;1095;103014;-78
2021/06/20 05:32:34;;;;;;;25.73;14.37;;;;;;;18.69;66.29;98885.36;125665;1096;103380;-77
2021/06/20 05:35:03;;;;;;;25.43;14.10;;;;;;;18.78;66.76;98891.58;125649;1094;103071;-77
2021/06/20 05:37:31;;;;;;;23.27;14.27;;;;;;;18.88;66.43;98897.64;125615;1094;103064;-76
2021/06/20 05:39:59;;;;;;;22.57;14.83;;;;;;;18.98;66.73;98898.31;125663;1096;102998;-76
2021/06/20 05:42:28;;;;;;;23.70;14.47;;;;;;;19.08;66.54;98908.08;125652;1096;103068;-78
2021/06/20 05:44:56;;;;;;;25.23;14.10;;;;;;;19.17;66.69;98909.76;125690;1096;103006;-78
2021/06/20 05:47:24;;;;;;;24.25;14.55;;;;;;;19.28;66.49;98905.86;125665;1096;102913;-78
2021/06/20 05:49:53;;;;;;;22.80;13.53;;;;;;;19.37;66.65;98912.92;125665;1096;103090;-75
2021/06/20 05:52:22;;;;;;;23.73;14.13;;;;;;;19.44;66.74;98913.05;125634;1095;102926;-76
2021/06/20 05:54:51;;;;;;;26.43;14.07;;;;;;;19.54;66.70;98916.41;125663;1095;103067;-77
2021/06/20 05:57:21;;;;;;;25.10;13.63;;;;;;;19.64;66.66;98910.80;125661;1094;102909;-77
2021/06/20 05:59:49;;;;;;;23.83;13.33;;;;;;;19.76;66.75;98917.51;125644;1095;103149;-78
2021/06/20 06:02:20;;;;;;;23.00;13.37;;;;;;;19.87;66.47;98921.67;125629;1096;102916;-77
2021/06/20 06:04:49;;;;;;;22.73;12.80;;;;;;;19.99;66.57;98916.75;125710;1094;103134;-80
2021/06/20 06:07:17;;;;;;;20.33;11.37;;;;;;;20.14;66.57;98918.70;125887;1096;103060;-86
2021/06/20 06:09:46;;;;;;;21.87;12.87;;;;;;;20.35;66.51;98915.38;126124;1095;101637;-85
2021/06/20 06:12:14;;;;;;;19.80;10.37;;;;;;;20.58;66.90;98915.39;125802;1094;103114;-86
2021/06/20 06:14:42;;;;;;;20.47;10.40;;;;;;;20.84;66.73;98911.48;125794;1096;102991;-73
2021/06/20 06:17:11;;;;;;;18.70;9.53;;;;;;;21.09;66.58;98905.88;125772;1096;103348;-74
2021/06/20 06:19:41;;;;;;;14.17;7.03;;;;;;;21.31;66.23;98892.45;125666;1095;102920;-76
2021/06/20 06:22:09;;;;;;;15.70;6.50;;;;;;;21.43;66.31;98888.27;125688;1096;102994;-73
2021/06/20 06:24:38;;;;;;;11.67;5.50;;;;;;;21.51;66.10;98884.62;125690;1097;102988;-74
2021/06/20 06:27:06;;;;;;;11.37;5.80;;;;;;;21.71;66.17;98879.50;125675;1094;103063;-78
2021/06/20 06:29:35;;;;;;;21.10;5.77;;;;;;;21.89;65.99;98884.51;125679;1095;103036;-76
2021/06/20 06:32:10;;;;;;;10.20;5.37;;;;;;;22.06;66.15;98889.71;125649;1097;103045;-83
2021/06/20 06:34:39;;;;;;;11.80;5.00;;;;;;;22.14;65.77;98890.42;125653;1096;103049;-79
2021/06/20 06:37:10;;;;;;;9.73;4.97;;;;;;;22.23;66.08;98884.89;125734;1094;103025;-81
2021/06/20 06:39:38;;;;;;;9.30;5.00;;;;;;;22.38;65.98;98880.27;125830;1097;103067;-80
2021/06/20 06:42:08;;;;;;;10.47;5.03;;;;;;;22.50;65.44;98886.05;125893;1096;101689;-79
2021/06/20 06:44:37;;;;;;;8.30;5.07;;;;;;;22.61;65.60;98879.25;125721;1095;102943;-80
2021/06/20 06:47:06;;;;;;;8.40;4.90;;;;;;;22.70;65.58;98879.95;125748;1097;102943;-77
2021/06/20 06:49:36;;;;;;;9.60;5.20;;;;;;;22.80;65.68;98875.04;125665;1095;103131;-77
2021/06/20 06:52:05;;;;;;;10.90;4.80;;;;;;;22.94;65.23;98870.55;125648;1096;103063;-74
2021/06/20 06:54:33;;;;;;;10.43;4.73;;;;;;;23.13;65.20;98858.17;125540;1096;102917;-72
2021/06/20 06:57:02;;;;;;;10.10;4.83;;;;;;;23.32;65.54;98863.96;125666;1096;103034;-74
2021/06/20 06:59:30;;;;;;;8.53;4.63;;;;;;;23.51;65.41;98853.40;125619;1096;103025;-75
2021/06/20 07:02:00;;;;;;;12.10;4.47;;;;;;;23.78;65.48;98857.92;125634;1096;102975;-74
2021/06/20 07:04:29;;;;;;;6.60;4.07;;;;;;;24.02;64.95;98852.19;125624;1095;103585;-74
2021/06/20 07:06:57;;;;;;;8.57;4.50;;;;;;;24.67;63.92;98852.47;125703;1095;103001;-76
2021/06/20 07:09:25;;;;;;;9.37;4.10;;;;;;;26.02;62.71;98844.02;125642;1094;102946;-81
2021/06/20 07:11:54;;;;;;;7.17;3.80;;;;;;;27.17;62.24;98841.27;125654;1094;102911;-75
2021/06/20 07:14:22;;;;;;;10.87;5.03;;;;;;;28.04;61.80;98839.41;125629;1094;102930;-71
2021/06/20 07:16:50;;;;;;;4.13;3.27;;;;;;;28.78;61.20;98846.56;125619;1097;103537;-73
2021/06/20 07:19:19;;;;;;;6.77;3.30;;;;;;;29.47;61.33;98842.39;125682;1095;102932;-72
2021/06/20 07:21:47;;;;;;;6.10;3.50;;;;;;;30.19;60.97;98845.72;125699;1095;103030;-71
2021/06/20 07:24:17;;;;;;;3.87;2.90;;;;;;;31.25;61.12;98848.84;125662;1096;102943;-83
2021/06/20 07:26:48;;;;;;;10.48;3.33;;;;;;;32.42;60.89;98853.29;125647;1095;103097;-76
2021/06/20 07:29:20;;;;;;;7.73;3.43;;;;;;;33.63;60.64;98857.45;125643;1094;103093;-88
2021/06/20 07:31:48;;;;;;;4.80;2.90;;;;;;;34.63;60.15;98867.67;125990;1095;103419;-76
2021/06/20 07:34:17;;;;;;;5.10;2.67;;;;;;;35.56;59.65;98879.45;125718;1096;102945;-81
2021/06/20 07:36:45;;;;;;;3.13;2.40;;;;;;;35.90;58.35;98888.97;125972;1096;102813;-88
2021/06/20 07:39:16;;;;;;;4.67;2.60;;;;;;;36.36;58.67;98891.51;125683;1094;103012;-75
2021/06/20 07:41:46;;;;;;;5.87;3.07;;;;;;;37.15;57.86;98891.77;125660;1095;102921;-78
2021/06/20 07:44:15;;;;;;;6.23;2.80;;;;;;;37.90;57.08;98897.88;125521;1094;102959;-77
2021/06/20 07:46:44;;;;;;;8.67;2.70;;;;;;;37.88;54.96;98898.16;125472;1096;103843;-75
2021/06/20 07:49:13;;;;;;;4.05;2.70;;;;;;;37.75;55.08;98894.16;125581;1095;103412;-78
2021/06/20 07:51:41;;;;;;;5.50;2.17;;;;;;;37.42;53.02;98904.23;126162;1095;103015;-76
2021/06/20 07:54:11;;;;;;;3.67;2.40;;;;;;;37.51;53.46;98905.27;125648;1095;102749;-76
2021/06/20 07:56:40;;;;;;;6.27;2.10;;;;;;;38.12;52.75;98902.85;125687;1094;102995;-75
2021/06/20 07:59:08;;;;;;;3.60;2.30;;;;;;;38.38;51.94;98902.50;125660;1094;103015;-78
2021/06/20 08:01:38;;;;;;;3.07;2.03;;;;;;;38.55;51.27;98901.98;125461;1095;103096;-74
2021/06/20 08:04:09;;;;;;;4.20;2.50;;;;;;;38.60;50.40;98901.07;125832;1095;103013;-75
2021/06/20 08:06:38;;;;;;;5.25;2.00;;;;;;;38.42;49.93;98896.06;125688;1094;103110;-79
2021/06/20 08:09:06;;;;;;;3.57;2.00;;;;;;;38.39;48.69;98895.84;126108;1095;103172;-80
2021/06/20 08:11:35;;;;;;;2.77;1.73;;;;;;;38.53;48.65;98891.16;125638;1094;102926;-75
2021/06/20 08:14:05;;;;;;;3.13;2.23;;;;;;;38.71;48.33;98897.00;125661;1095;102925;-77
2021/06/20 08:16:33;;;;;;;3.83;2.30;;;;;;;38.75;47.44;98906.39;125515;1096;103097;-79
2021/06/20 08:19:02;;;;;;;2.40;1.77;;;;;;;38.85;47.30;98908.16;125372;1094;103103;-75
2021/06/20 08:21:31;;;;;;;1.90;1.80;;;;;;;38.91;45.49;98906.17;125508;1095;103039;-79
2021/06/20 08:23:59;;;;;;;2.13;1.93;;;;;;;37.63;40.35;98902.92;125523;1096;103007;-77
2021/06/20 08:26:27;;;;;;;3.33;2.00;;;;;;;36.09;38.93;98891.95;125544;1094;103520;-87
2021/06/20 08:28:56;;;;;;;2.83;2.07;;;;;;;34.76;37.17;98897.48;126028;1095;103001;-78
2021/06/20 08:31:24;;;;;;;2.87;1.40;;;;;;;33.91;37.75;98887.63;125529;1095;103314;-77
2021/06/20 08:33:53;;;;;;;2.13;1.80;;;;;;;33.64;37.44;98883.92;125587;1095;103017;-75
2021/06/20 08:36:21;;;;;;;5.47;2.40;;;;;;;33.23;38.59;98887.25;125588;1095;102914;-76
2021/06/20 08:38:50;;;;;;;3.33;2.40;;;;;;;33.58;39.64;98895.21;125603;1094;102908;-77
2021/06/20 08:41:21;;;;;;;4.20;2.60;;;;;;;34.14;39.81;98897.38;125510;1094;103009;-83
2021/06/20 08:43:55;;;;;;;6.30;3.00;;;;;;;34.51;39.78;98899.14;125980;1095;102995;-85
2021/06/20 08:46:26;;;;;;;4.70;2.63;;;;;;;34.81;39.20;98899.44;125928;1094;102712;-84
2021/06/20 08:48:55;;;;;;;7.23;3.00;;;;;;;34.99;39.41;98898.08;125948;1095;102938;-87
2021/06/20 08:51:23;;;;;;;4.40;3.30;;;;;;;34.92;39.18;98895.54;126091;1096;103023;-82
2021/06/20 08:53:52;;;;;;;5.40;2.87;;;;;;;34.94;39.27;98898.86;126008;1095;102917;-79
2021/06/20 08:56:20;;;;;;;7.93;3.20;;;;;;;35.03;38.96;98894.47;125922;1094;103087;-85
2021/06/20 08:58:48;;;;;;;4.97;3.17;;;;;;;35.07;39.32;98897.48;125777;1095;102980;-80
2021/06/20 09:01:17;;;;;;;4.97;2.80;;;;;;;35.19;39.32;98897.22;125652;1095;103437;-82
2021/06/20 09:03:45;;;;;;;4.10;3.00;;;;;;;35.21;39.15;98897.77;125884;1095;102939;-82
2021/06/20 09:06:22;;;;;;;8.67;3.10;;;;;;;35.10;39.03;98896.12;125835;1095;103018;-81
2021/06/20 09:08:54;;;;;;;4.40;2.90;;;;;;;35.19;38.85;98894.45;125840;1095;103069;-82
2021/06/20 09:11:51;;;;;;;4.83;2.83;;;;;;;35.40;38.60;98897.16;125728;1096;103014;-83
2021/06/20 09:14:21;;;;;;;19.17;12.57;;;;;;;35.32;38.51;98899.38;125632;1095;103014;-83
2021/06/20 09:16:51;;;;;;;6.50;3.80;;;;;;;35.36;38.57;98896.06;126153;1094;102972;-82
2021/06/20 09:19:35;;;;;;;7.33;4.40;;;;;;;35.31;38.67;98896.91;125992;1095;102980;-80
2021/06/20 09:22:10;;;;;;;5.57;2.80;;;;;;;35.20;38.54;98893.34;125903;1096;103088;-83
2021/06/20 09:24:40;;;;;;;3.40;2.50;;;;;;;34.84;38.33;98896.94;125661;1096;102916;-79
2021/06/20 09:27:08;;;;;;;4.07;2.70;;;;;;;34.57;38.51;98897.20;125843;1095;103001;-80
2021/06/20 09:29:39;;;;;;;4.60;2.60;;;;;;;34.28;37.92;98887.45;125860;1095;102983;-79
2021/06/20 09:32:10;;;;;;;5.30;2.70;;;;;;;33.93;37.58;98880.75;125860;1095;102932;-80
2021/06/20 09:34:50;;;;;;;4.23;2.53;;;;;;;33.67;37.72;98886.15;125858;1095;102940;-80
2021/06/20 09:37:21;;;;;;;5.60;3.00;;;;;;;33.73;37.73;98875.96;125847;1095;102997;-86
2021/06/20 09:39:49;;;;;;;3.70;2.73;;;;;;;33.78;37.34;98877.93;125901;1095;103013;-81
2021/06/20 09:42:18;;;;;;;4.73;2.60;;;;;;;33.68;37.92;98873.17;125811;1095;102916;-83
2021/06/20 09:44:54;;;;;;;4.10;2.60;;;;;;;33.65;36.26;98862.69;125942;1095;102922;-80
2021/06/20 09:47:27;;;;;;;5.60;2.90;;;;;;;33.20;36.26;98862.16;125857;1095;102916;-82
2021/06/20 09:49:57;;;;;;;6.13;3.27;;;;;;;32.67;36.39;98857.34;125659;1095;102923;-78
2021/06/20 09:52:28;;;;;;;11.17;3.90;;;;;;;32.34;36.72;98854.61;125590;1096;103028;-80
2021/06/20 09:55:00;;;;;;;10.33;4.07;;;;;;;32.20;36.71;98843.13;125653;1095;103087;-76
2021/06/20 09:57:39;;;;;;;5.45;3.35;;;;;;;32.07;36.89;98844.38;125561;1095;102913;-76
2021/06/20 10:00:12;;;;;;;13.07;4.43;;;;;;;32.12;36.95;98846.38;125579;1095;103221;-78
2021/06/20 10:02:43;;;;;;;12.17;4.30;;;;;;;32.16;36.77;98854.93;125631;1095;103438;-77
2021/06/20 10:05:12;;;;;;;13.27;4.87;;;;;;;32.13;36.90;98849.94;125581;1096;103038;-71
2021/06/20 10:07:41;;;;;;;14.83;5.50;;;;;;;32.22;36.98;98859.39;125594;1095;103437;-72
2021/06/20 10:10:11;;;;;;;21.63;11.87;;;;;;;32.18;36.90;98856.34;125593;1095;102907;-79
2021/06/20 10:12:39;;;;;;;9.10;4.90;;;;;;;32.10;36.98;98853.20;125847;1095;103179;-79
2021/06/20 10:15:14;;;;;;;16.03;4.90;;;;;;;31.97;37.08;98848.95;125887;1096;103053;-76
2021/06/20 10:17:50;;;;;;;17.20;5.77;;;;;;;31.68;37.00;98838.15;125591;1095;103435;-75
2021/06/20 10:20:21;;;;;;;12.10;4.97;;;;;;;31.36;36.97;98839.67;125593;1095;102918;-78
2021/06/20 10:22:50;;;;;;;31.37;9.93;;;;;;;31.31;37.18;98828.61;125491;1094;102920;-78
2021/06/20 10:25:32;;;;;;;20.07;6.13;;;;;;;31.27;37.12;98822.80;125522;1095;102997;-75
2021/06/20 10:28:03;;;;;;;14.60;5.48;;;;;;;31.16;37.07;98813.60;125556;1094;103004;-74
2021/06/20 10:30:35;;;;;;;13.43;4.87;;;;;;;31.04;37.23;98821.08;125530;1095;102916;-75
2021/06/20 10:33:13;;;;;;;11.17;4.70;;;;;;;30.96;37.42;98825.09;125550;1096;102913;-71
2021/06/20 10:35:43;;;;;;;10.70;4.60;;;;;;;30.74;37.23;98816.80;126054;1093;103021;-73
2021/06/20 10:38:44;;;;;;;15.03;6.40;;;;;;;30.70;37.33;98812.89;125571;1095;102718;-74
2021/06/20 10:41:25;;;;;;;26.00;10.13;;;;;;;30.66;37.78;98820.77;125649;1095;103639;-77
2021/06/20 10:44:02;;;;;;;15.05;6.05;;;;;;;30.65;37.94;98818.30;125557;1096;104514;-73
2021/06/20 10:46:32;;;;;;;22.40;8.57;;;;;;;30.66;37.62;98817.21;125591;1095;103007;-74
2021/06/20 10:49:01;;;;;;;14.10;5.40;;;;;;;30.65;38.30;98804.57;125662;1095;102916;-73
2021/06/20 10:51:31;;;;;;;14.67;6.17;;;;;;;30.65;38.11;98788.10;125597;1095;103082;-73
2021/06/20 10:53:59;;;;;;;16.90;7.20;;;;;;;30.65;38.36;98783.43;125650;1095;103044;-75
2021/06/20 10:57:00;;;;;;;12.23;5.50;;;;;;;30.65;38.41;98786.17;125609;1094;104174;-73
2021/06/20 10:59:28;;;;;;;12.20;5.43;;;;;;;30.55;37.93;98786.00;125638;1094;102922;-74
2021/06/20 11:01:57;;;;;;;13.93;5.37;;;;;;;30.39;38.57;98774.77;125572;1095;103124;-80
2021/06/20 11:04:28;;;;;;;10.00;5.40;;;;;;;30.34;38.68;98777.42;125686;1095;103410;-80
2021/06/20 11:06:58;;;;;;;9.07;4.33;;;;;;;30.26;38.38;98772.34;125960;1096;103038;-83
2021/06/20 11:09:37;;;;;;;10.63;5.33;;;;;;;30.19;38.05;98767.03;126019;1096;102916;-79
2021/06/20 11:12:14;;;;;;;14.47;5.50;;;;;;;30.12;38.40;98766.36;125553;1094;102953;-77
2021/06/20 11:14:46;;;;;;;15.70;5.50;;;;;;;30.12;38.37;98763.61;125597;1096;103098;-77
2021/06/20 11:17:14;;;;;;;13.40;5.47;;;;;;;30.15;38.94;98760.38;125543;1094;103151;-77
2021/06/20 11:19:44;;;;;;;15.33;5.60;;;;;;;30.12;38.79;98752.64;125606;1095;103128;-73